createdAt,value
2023-01-20T00:00:17.076Z,4.50
2023-01-20T00:02:43.563Z,2.08
2023-01-20T00:05:10.044Z,1.67
2023-01-20T00:07:36.942Z,2.40
2023-01-20T00:10:03.610Z,2.97
2023-01-20T00:12:30.749Z,1.75
2023-01-20T00:15:00.154Z,3.05
2023-01-20T00:17:27.746Z,2.45
2023-01-20T00:19:54.285Z,2.00
2023-01-20T00:22:21.464Z,2.63
2023-01-20T00:24:47.996Z,2.63
2023-01-20T00:27:15.233Z,2.53
2023-01-20T00:29:44.238Z,2.70
2023-01-20T00:32:11.470Z,2.20
2023-01-20T00:34:38.001Z,3.28
2023-01-20T00:37:04.768Z,2.53
2023-01-20T00:39:31.271Z,3.05
2023-01-20T00:41:57.746Z,3.00
2023-01-20T00:44:24.195Z,2.35
2023-01-20T00:46:50.736Z,2.72
2023-01-20T00:49:17.447Z,3.55
2023-01-20T00:51:43.930Z,2.72
2023-01-20T00:54:10.411Z,3.53
2023-01-20T00:56:36.863Z,2.80
2023-01-20T00:59:03.333Z,3.40
2023-01-20T01:01:29.861Z,2.95
2023-01-20T01:03:56.550Z,3.22
2023-01-20T01:06:23.819Z,1.98
2023-01-20T01:08:50.430Z,2.47
2023-01-20T01:11:16.896Z,2.63
2023-01-20T01:13:43.433Z,4.25
2023-01-20T01:16:13.642Z,2.42
2023-01-20T01:18:40.577Z,2.58
2023-01-20T01:21:08.281Z,2.60
2023-01-20T01:23:34.741Z,2.90
2023-01-20T01:26:01.304Z,2.90
2023-01-20T01:28:27.797Z,3.17
2023-01-20T01:30:54.499Z,2.75
2023-01-20T01:33:21.109Z,2.42
2023-01-20T01:35:57.373Z,2.20
2023-01-20T01:38:24.021Z,2.53
2023-01-20T01:40:50.963Z,2.10
2023-01-20T01:43:23.909Z,1.88
2023-01-20T01:45:50.428Z,2.30
2023-01-20T01:48:17.928Z,2.15
2023-01-20T01:50:46.883Z,2.05
2023-01-20T01:53:14.073Z,1.88
2023-01-20T01:55:43.877Z,1.80
2023-01-20T01:58:12.601Z,2.00
2023-01-20T02:00:39.275Z,2.13
2023-01-20T02:03:06.219Z,1.90
2023-01-20T02:05:33.097Z,1.95
2023-01-20T02:07:59.865Z,3.05
2023-01-20T02:10:26.551Z,2.00
2023-01-20T02:12:53.585Z,2.58
2023-01-20T02:15:24.751Z,2.85
2023-01-20T02:18:06.264Z,2.33
2023-01-20T02:20:32.775Z,2.63
2023-01-20T02:23:17.939Z,2.75
2023-01-20T02:25:56.733Z,3.83
2023-01-20T02:28:35.318Z,2.40
2023-01-20T02:31:20.317Z,2.47
2023-01-20T02:33:56.000Z,2.83
2023-01-20T02:36:28.803Z,2.90
2023-01-20T02:39:03.264Z,3.47
2023-01-20T02:41:37.664Z,2.85
2023-01-20T02:44:08.643Z,3.20
2023-01-20T02:46:40.822Z,2.38
2023-01-20T02:49:16.391Z,3.08
2023-01-20T02:51:46.490Z,3.72
2023-01-20T02:54:15.153Z,2.72
2023-01-20T02:56:42.224Z,2.65
2023-01-20T02:59:11.093Z,3.45
2023-01-20T03:01:40.437Z,3.55
2023-01-20T03:04:07.533Z,3.05
2023-01-20T03:06:37.667Z,2.85
2023-01-20T03:09:07.157Z,2.55
2023-01-20T03:11:36.400Z,2.67
2023-01-20T03:14:11.155Z,2.78
2023-01-20T03:16:37.811Z,3.17
2023-01-20T03:19:04.499Z,2.65
2023-01-20T03:21:31.022Z,2.05
2023-01-20T03:24:00.044Z,2.30
2023-01-20T03:26:26.985Z,1.42
2023-01-20T03:28:54.758Z,2.40
2023-01-20T03:31:26.328Z,2.22
2023-01-20T03:33:54.643Z,2.50
2023-01-20T03:36:22.473Z,2.42
2023-01-20T03:38:49.473Z,1.77
2023-01-20T03:41:18.789Z,2.53
2023-01-20T03:43:49.456Z,6.13
2023-01-20T03:46:19.984Z,3.55
2023-01-20T03:49:02.563Z,3.38
2023-01-20T03:51:33.485Z,2.90
2023-01-20T03:54:01.484Z,2.97
2023-01-20T03:56:30.134Z,2.50
2023-01-20T03:58:58.674Z,2.42
2023-01-20T04:01:29.118Z,2.30
2023-01-20T04:03:56.417Z,2.88
2023-01-20T04:06:23.978Z,2.65
2023-01-20T04:08:59.363Z,2.65
2023-01-20T04:11:27.263Z,1.80
2023-01-20T04:13:53.961Z,2.05
2023-01-20T04:16:20.880Z,4.82
2023-01-20T04:18:49.294Z,2.72
2023-01-20T04:21:29.691Z,2.97
2023-01-20T04:24:02.575Z,2.10
2023-01-20T04:26:29.144Z,2.95
2023-01-20T04:28:55.634Z,3.88
2023-01-20T04:31:30.609Z,2.53
2023-01-20T04:33:57.940Z,2.30
2023-01-20T04:36:24.458Z,3.20
2023-01-20T04:38:50.916Z,3.25
2023-01-20T04:41:17.382Z,2.65
2023-01-20T04:43:45.166Z,3.20
2023-01-20T04:46:12.551Z,2.20
2023-01-20T04:48:39.265Z,3.20
2023-01-20T04:51:06.580Z,2.80
2023-01-20T04:53:33.040Z,3.30
2023-01-20T04:55:59.649Z,3.05
2023-01-20T04:58:26.166Z,2.40
2023-01-20T05:00:52.648Z,2.45
2023-01-20T05:03:19.174Z,2.90
2023-01-20T05:05:52.108Z,2.58
2023-01-20T05:08:18.556Z,2.40
2023-01-20T05:10:45.069Z,2.95
2023-01-20T05:13:11.543Z,2.60
2023-01-20T05:15:39.178Z,2.55
2023-01-20T05:18:05.709Z,2.83
2023-01-20T05:20:32.180Z,2.92
2023-01-20T05:23:01.188Z,3.72
2023-01-20T05:25:27.878Z,3.22
2023-01-20T05:27:54.363Z,2.50
2023-01-20T05:30:20.962Z,2.78
2023-01-20T05:32:51.152Z,2.22
2023-01-20T05:35:18.171Z,2.83
2023-01-20T05:37:44.730Z,2.67
2023-01-20T05:40:11.570Z,2.67
2023-01-20T05:42:38.070Z,4.50
2023-01-20T05:45:04.769Z,3.08
2023-01-20T05:47:31.267Z,2.60
2023-01-20T05:49:57.739Z,2.67
2023-01-20T05:52:24.258Z,4.10
2023-01-20T05:54:50.819Z,2.60
2023-01-20T05:57:18.392Z,2.67
2023-01-20T05:59:47.455Z,3.08
2023-01-20T06:02:15.997Z,3.97
2023-01-20T06:04:42.455Z,3.13
2023-01-20T06:07:08.923Z,2.42
2023-01-20T06:09:35.371Z,2.05
2023-01-20T06:12:02.100Z,2.83
2023-01-20T06:14:28.568Z,2.25
2023-01-20T06:16:55.031Z,2.78
2023-01-20T06:19:21.507Z,2.90
2023-01-20T06:21:48.020Z,2.67
2023-01-20T06:24:14.505Z,2.38
2023-01-20T06:26:40.996Z,2.67
2023-01-20T06:29:07.460Z,2.83
2023-01-20T06:31:34.097Z,4.22
2023-01-20T06:34:00.666Z,2.55
2023-01-20T06:36:27.132Z,2.25
2023-01-20T06:38:53.650Z,3.08
2023-01-20T06:41:20.643Z,3.55
2023-01-20T06:43:47.387Z,2.72
2023-01-20T06:46:14.848Z,2.60
2023-01-20T06:48:42.638Z,3.63
2023-01-20T06:51:13.580Z,3.47
2023-01-20T06:53:40.307Z,2.28
2023-01-20T06:56:06.985Z,2.58
2023-01-20T06:58:33.976Z,2.53
2023-01-20T07:01:08.882Z,2.97
2023-01-20T07:03:35.905Z,2.28
2023-01-20T07:06:03.737Z,2.38
2023-01-20T07:08:30.698Z,2.40
2023-01-20T07:10:57.205Z,3.08
2023-01-20T07:13:23.682Z,2.53
2023-01-20T07:15:50.169Z,2.17
2023-01-20T07:18:16.654Z,3.00
2023-01-20T07:20:43.875Z,2.08
2023-01-20T07:23:10.443Z,2.97
2023-01-20T07:25:38.169Z,2.83
2023-01-20T07:28:05.005Z,2.15
2023-01-20T07:30:31.543Z,2.92
2023-01-20T07:32:58.056Z,2.58
2023-01-20T07:35:24.610Z,2.88
2023-01-20T07:37:51.155Z,2.80
2023-01-20T07:40:18.562Z,3.75
2023-01-20T07:42:45.078Z,2.53
2023-01-20T07:45:11.742Z,2.67
2023-01-20T07:47:38.261Z,3.25
2023-01-20T07:50:04.959Z,2.83
2023-01-20T07:52:31.443Z,2.90
2023-01-20T07:54:57.894Z,2.88
2023-01-20T07:57:24.382Z,2.40
2023-01-20T07:59:50.867Z,2.97
2023-01-20T08:02:17.351Z,2.45
2023-01-20T08:04:43.831Z,2.40
2023-01-20T08:07:11.269Z,2.33
2023-01-20T08:09:37.749Z,2.42
2023-01-20T08:12:04.362Z,2.00
2023-01-20T08:14:30.856Z,3.65
2023-01-20T08:16:57.430Z,2.85
2023-01-20T08:19:23.932Z,2.80
2023-01-20T08:21:50.408Z,2.15
2023-01-20T08:24:16.871Z,2.22
2023-01-20T08:26:43.632Z,2.33
2023-01-20T08:29:10.313Z,2.70
2023-01-20T08:31:37.536Z,2.45
2023-01-20T08:34:04.602Z,2.10
2023-01-20T08:36:32.535Z,3.05
2023-01-20T08:39:00.137Z,2.40
2023-01-20T08:41:28.537Z,2.22
2023-01-20T08:43:55.714Z,3.40
2023-01-20T08:46:22.355Z,2.28
2023-01-20T08:48:49.532Z,2.50
2023-01-20T08:51:20.341Z,2.90
2023-01-20T08:53:46.871Z,2.20
2023-01-20T08:56:13.417Z,2.67
2023-01-20T08:58:40.418Z,2.17
2023-01-20T09:01:10.240Z,2.75
2023-01-20T09:03:36.935Z,2.05
2023-01-20T09:06:04.055Z,2.15
2023-01-20T09:08:30.697Z,2.10
2023-01-20T09:11:05.117Z,2.53
2023-01-20T09:13:31.695Z,2.42
2023-01-20T09:15:58.171Z,3.50
2023-01-20T09:18:24.703Z,2.38
2023-01-20T09:20:51.192Z,2.33
2023-01-20T09:23:17.736Z,2.92
2023-01-20T09:25:44.240Z,2.10
2023-01-20T09:28:12.127Z,2.45
2023-01-20T09:30:38.700Z,2.58
2023-01-20T09:33:05.327Z,2.70
2023-01-20T09:35:31.790Z,4.13
2023-01-20T09:38:17.042Z,2.10
2023-01-20T09:41:16.452Z,3.63
2023-01-20T09:44:08.131Z,2.97
2023-01-20T09:47:06.716Z,3.08
2023-01-20T09:49:58.272Z,3.17
2023-01-20T09:52:51.851Z,2.22
2023-01-20T09:55:36.838Z,2.33
2023-01-20T09:58:06.052Z,1.75
2023-01-20T10:00:34.595Z,2.22
2023-01-20T10:03:07.147Z,2.22
2023-01-20T10:05:37.635Z,2.28
2023-01-20T10:08:10.197Z,1.88
2023-01-20T10:10:45.453Z,2.10
2023-01-20T10:13:11.969Z,1.90
2023-01-20T10:15:40.342Z,2.38
2023-01-20T10:18:13.372Z,2.25
2023-01-20T10:20:55.261Z,2.28
2023-01-20T10:23:24.859Z,2.47
2023-01-20T10:25:54.968Z,2.65
2023-01-20T10:28:24.961Z,3.80
2023-01-20T10:30:51.565Z,2.35
2023-01-20T10:33:22.189Z,2.75
2023-01-20T10:35:51.360Z,2.17
2023-01-20T10:38:41.157Z,2.28
2023-01-20T10:41:07.611Z,2.92
2023-01-20T10:43:34.096Z,3.53
2023-01-20T10:46:15.974Z,2.85
2023-01-20T10:48:42.413Z,2.92
2023-01-20T10:51:27.342Z,2.90
2023-01-20T10:54:01.274Z,2.30
2023-01-20T10:56:45.325Z,3.50
2023-01-20T10:59:13.749Z,2.90
2023-01-20T11:01:40.911Z,2.10
2023-01-20T11:04:17.026Z,2.15
2023-01-20T11:06:46.116Z,1.63
2023-01-20T11:09:26.074Z,2.40
2023-01-20T11:11:53.011Z,2.80
2023-01-20T11:14:20.020Z,3.30
2023-01-20T11:16:49.764Z,2.35
2023-01-20T11:19:16.254Z,3.35
2023-01-20T11:21:42.931Z,2.17
2023-01-20T11:24:29.668Z,2.08
2023-01-20T11:27:02.800Z,1.77
2023-01-20T11:29:30.591Z,2.22
2023-01-20T11:31:58.270Z,2.53
2023-01-20T11:34:32.331Z,2.88
2023-01-20T11:37:04.874Z,2.03
2023-01-20T11:39:33.877Z,2.45
2023-01-20T11:42:17.109Z,2.42
2023-01-20T11:44:53.839Z,2.85
2023-01-20T11:47:38.914Z,2.72
2023-01-20T11:50:08.114Z,2.17
2023-01-20T11:52:34.563Z,2.03
2023-01-20T11:55:13.054Z,2.45
2023-01-20T11:57:40.763Z,2.10
2023-01-20T12:00:30.555Z,1.67
2023-01-20T12:03:17.248Z,2.10
2023-01-20T12:05:50.144Z,1.70
2023-01-20T12:08:17.903Z,2.05
2023-01-20T12:10:44.900Z,3.35
2023-01-20T12:13:11.359Z,2.22
2023-01-20T12:15:40.624Z,3.30
2023-01-20T12:18:10.551Z,3.75
2023-01-20T12:20:54.160Z,3.78
2023-01-20T12:23:45.714Z,2.67
2023-01-20T12:26:22.449Z,2.88
2023-01-20T12:29:07.084Z,1.95
2023-01-20T12:31:34.179Z,2.13
2023-01-20T12:34:02.606Z,1.98
2023-01-20T12:36:53.976Z,1.88
2023-01-20T12:39:20.446Z,1.63
2023-01-20T12:41:49.777Z,2.25
2023-01-20T12:44:35.013Z,2.40
2023-01-20T12:47:04.373Z,2.30
2023-01-20T12:49:43.808Z,2.80
2023-01-20T12:52:18.630Z,2.50
2023-01-20T12:54:50.980Z,2.53
2023-01-20T12:57:25.501Z,2.50
2023-01-20T12:59:51.967Z,2.90
2023-01-20T13:02:37.628Z,2.53
2023-01-20T13:05:10.067Z,1.90
2023-01-20T13:07:48.811Z,2.58
2023-01-20T13:10:18.489Z,2.78
2023-01-20T13:12:57.112Z,3.17
2023-01-20T13:15:26.721Z,1.95
2023-01-20T13:18:05.262Z,2.00
2023-01-20T13:20:31.898Z,2.08
2023-01-20T13:23:01.697Z,3.40
2023-01-20T13:25:28.620Z,3.25
2023-01-20T13:27:55.651Z,3.67
2023-01-20T13:30:50.876Z,2.78
2023-01-20T13:33:27.032Z,3.35
2023-01-20T13:35:53.578Z,2.35
2023-01-20T13:38:21.396Z,2.60
2023-01-20T13:40:49.538Z,2.63
2023-01-20T13:43:25.517Z,2.53
2023-01-20T13:46:07.518Z,2.60
2023-01-20T13:48:35.485Z,3.15
2023-01-20T13:51:20.685Z,5.40
2023-01-20T13:53:47.221Z,4.90
2023-01-20T13:56:30.175Z,2.03
2023-01-20T13:59:00.207Z,4.78
2023-01-20T14:01:27.484Z,3.42
2023-01-20T14:04:13.971Z,2.90
2023-01-20T14:06:47.315Z,3.72
2023-01-20T14:09:20.418Z,2.50
2023-01-20T14:11:50.709Z,2.15
2023-01-20T14:14:21.100Z,2.80
2023-01-20T14:16:47.633Z,4.30
2023-01-20T14:19:27.617Z,3.50
2023-01-20T14:21:54.913Z,4.75
2023-01-20T14:24:28.294Z,5.82
2023-01-20T14:27:13.556Z,5.13
2023-01-20T14:29:40.061Z,4.15
2023-01-20T14:32:22.462Z,3.60
2023-01-20T14:34:49.457Z,4.07
2023-01-20T14:37:27.528Z,3.78
2023-01-20T14:39:56.835Z,6.57
2023-01-20T14:42:23.644Z,4.13
2023-01-20T14:44:51.103Z,4.28
2023-01-20T14:47:18.122Z,3.45
2023-01-20T14:49:44.949Z,4.05
2023-01-20T14:52:21.599Z,3.88
2023-01-20T14:54:51.803Z,3.80
2023-01-20T14:57:37.134Z,4.45
2023-01-20T15:00:16.363Z,2.63
2023-01-20T15:02:44.874Z,2.88
2023-01-20T15:05:20.352Z,2.60
2023-01-20T15:07:46.893Z,1.95
2023-01-20T15:10:15.334Z,2.22
2023-01-20T15:12:45.028Z,1.83
2023-01-20T15:15:21.945Z,1.27
2023-01-20T15:18:04.633Z,1.83
2023-01-20T15:20:32.548Z,2.50
2023-01-20T15:23:02.238Z,2.85
2023-01-20T15:25:29.302Z,4.50
2023-01-20T15:27:56.712Z,1.83
2023-01-20T15:30:27.361Z,1.27
2023-01-20T15:32:54.644Z,2.47
2023-01-20T15:35:26.233Z,2.10
2023-01-20T15:37:53.121Z,1.55
2023-01-20T15:40:21.024Z,2.63
2023-01-20T15:42:48.016Z,2.25
2023-01-20T15:45:15.454Z,2.80
2023-01-20T15:47:42.555Z,1.88
2023-01-20T15:50:16.539Z,1.67
2023-01-20T15:52:43.217Z,2.65
2023-01-20T15:55:16.348Z,2.05
2023-01-20T15:57:43.168Z,2.30
2023-01-20T16:00:20.143Z,3.35
2023-01-20T16:02:46.685Z,4.45
2023-01-20T16:05:15.771Z,3.25
2023-01-20T16:07:44.372Z,3.65
2023-01-20T16:10:15.658Z,3.55
2023-01-20T16:12:42.303Z,6.60
2023-01-20T16:15:13.302Z,4.05
2023-01-20T16:17:40.588Z,4.13
2023-01-20T16:20:21.593Z,7.38
2023-01-20T16:22:48.174Z,10.75
2023-01-20T16:25:14.930Z,10.60
2023-01-20T16:27:41.410Z,8.88
2023-01-20T16:30:10.888Z,6.25
2023-01-20T16:32:37.390Z,6.03
2023-01-20T16:35:04.072Z,5.45
2023-01-20T16:37:30.566Z,5.03
2023-01-20T16:39:57.070Z,4.05
2023-01-20T16:42:23.520Z,5.25
2023-01-20T16:44:50.024Z,3.17
2023-01-20T16:47:16.501Z,6.32
2023-01-20T16:49:42.967Z,7.50
2023-01-20T16:52:10.217Z,7.20
2023-01-20T16:54:36.733Z,8.88
2023-01-20T16:57:03.293Z,7.43
2023-01-20T16:59:29.845Z,10.27
2023-01-20T17:01:56.382Z,7.07
2023-01-20T17:04:22.936Z,16.65
2023-01-20T17:06:52.311Z,10.80
2023-01-20T17:09:18.786Z,6.68
2023-01-20T17:11:45.236Z,4.90
2023-01-20T17:14:11.739Z,7.70
2023-01-20T17:16:39.038Z,5.18
2023-01-20T17:19:06.001Z,7.72
2023-01-20T17:21:33.408Z,12.90
2023-01-20T17:24:01.547Z,10.68
2023-01-20T17:26:28.502Z,7.15
2023-01-20T17:28:56.017Z,10.48
2023-01-20T17:31:22.855Z,7.70
2023-01-20T17:33:49.784Z,5.85
2023-01-20T17:36:19.136Z,7.60
2023-01-20T17:38:45.708Z,5.57
2023-01-20T17:41:13.196Z,5.70
2023-01-20T17:43:41.036Z,5.50
2023-01-20T17:46:13.770Z,5.03
2023-01-20T17:48:40.369Z,5.60
2023-01-20T17:51:10.829Z,4.20
2023-01-20T17:53:37.394Z,4.35
2023-01-20T17:56:12.267Z,3.80
2023-01-20T17:58:39.800Z,3.47
2023-01-20T18:01:10.635Z,2.85
2023-01-20T18:03:39.690Z,3.92
2023-01-20T18:06:07.463Z,2.88
2023-01-20T18:08:34.556Z,2.90
2023-01-20T18:11:01.760Z,6.53
2023-01-20T18:13:28.237Z,5.57
2023-01-20T18:15:54.691Z,5.20
2023-01-20T18:18:21.202Z,8.27
2023-01-20T18:20:47.661Z,13.52
2023-01-20T18:23:14.144Z,8.73
2023-01-20T18:25:40.612Z,13.35
2023-01-20T18:28:07.088Z,11.68
2023-01-20T18:30:34.002Z,8.13
2023-01-20T18:33:00.523Z,5.97
2023-01-20T18:35:27.066Z,4.47
2023-01-20T18:37:53.539Z,3.90
2023-01-20T18:40:20.154Z,3.90
2023-01-20T18:42:46.809Z,4.50
2023-01-20T18:45:13.730Z,4.43
2023-01-20T18:47:40.214Z,5.25
2023-01-20T18:50:07.061Z,5.90
2023-01-20T18:52:33.568Z,6.93
2023-01-20T18:55:00.101Z,8.20
2023-01-20T18:57:27.012Z,10.05
2023-01-20T18:59:53.607Z,10.55
2023-01-20T19:02:20.245Z,11.48
2023-01-20T19:04:51.442Z,11.48
2023-01-20T19:07:17.907Z,11.20
2023-01-20T19:09:44.607Z,17.73
2023-01-20T19:12:11.118Z,12.32
2023-01-20T19:14:37.621Z,8.93
2023-01-20T19:17:04.155Z,7.40
2023-01-20T19:19:30.727Z,5.82
2023-01-20T19:21:57.222Z,5.28
2023-01-20T19:24:27.234Z,6.38
2023-01-20T19:26:54.084Z,9.35
2023-01-20T19:29:21.838Z,6.68
2023-01-20T19:31:49.210Z,7.30
2023-01-20T19:34:16.118Z,8.63
2023-01-20T19:36:42.628Z,7.47
2023-01-20T19:39:09.122Z,5.25
2023-01-20T19:41:36.356Z,5.03
2023-01-20T19:44:04.360Z,4.15
2023-01-20T19:46:33.112Z,4.40
2023-01-20T19:49:00.292Z,6.57
2023-01-20T19:51:27.182Z,9.65
2023-01-20T19:53:55.703Z,4.78
2023-01-20T19:56:22.187Z,4.03
2023-01-20T19:58:49.040Z,3.85
2023-01-20T20:01:17.239Z,2.78
2023-01-20T20:03:43.834Z,11.35
2023-01-20T20:06:23.203Z,4.57
2023-01-20T20:08:49.985Z,2.80
2023-01-20T20:11:16.501Z,2.60
2023-01-20T20:13:43.024Z,5.07
2023-01-20T20:16:09.558Z,5.05
2023-01-20T20:18:36.052Z,5.68
2023-01-20T20:21:03.615Z,5.80
2023-01-20T20:23:30.352Z,4.43
2023-01-20T20:25:57.056Z,4.38
2023-01-20T20:28:24.476Z,4.68
2023-01-20T20:30:51.617Z,4.80
2023-01-20T20:33:18.722Z,4.20
2023-01-20T20:35:45.273Z,6.80
2023-01-20T20:38:11.730Z,7.18
2023-01-20T20:40:38.239Z,4.47
2023-01-20T20:43:04.732Z,4.30
2023-01-20T20:45:31.332Z,4.90
2023-01-20T20:47:58.014Z,3.75
2023-01-20T20:50:25.287Z,4.68
2023-01-20T20:52:52.717Z,5.20
2023-01-20T20:55:19.361Z,5.13
2023-01-20T20:57:45.845Z,5.03
2023-01-20T21:00:12.597Z,3.35
2023-01-20T21:02:39.839Z,4.60
2023-01-20T21:05:07.077Z,4.15
2023-01-20T21:07:33.566Z,2.95
2023-01-20T21:10:00.107Z,3.80
2023-01-20T21:12:27.128Z,3.00
2023-01-20T21:14:53.599Z,2.78
2023-01-20T21:17:20.188Z,3.55
2023-01-20T21:19:52.298Z,3.10
2023-01-20T21:22:19.952Z,3.03
2023-01-20T21:24:46.451Z,4.47
2023-01-20T21:27:13.442Z,3.97
2023-01-20T21:29:40.001Z,4.05
2023-01-20T21:32:06.461Z,3.45
2023-01-20T21:34:32.937Z,3.72
2023-01-20T21:36:59.663Z,3.33
2023-01-20T21:39:26.161Z,2.42
2023-01-20T21:41:52.647Z,2.20
2023-01-20T21:44:36.452Z,2.03
2023-01-20T21:49:48.463Z,3.90
2023-01-20T21:52:34.423Z,3.30
2023-01-20T21:55:01.437Z,2.63
2023-01-20T21:57:29.268Z,2.63
2023-01-20T21:59:56.054Z,2.83
2023-01-20T22:02:22.690Z,1.98
2023-01-20T22:04:49.280Z,2.10
2023-01-20T22:07:17.434Z,1.63
2023-01-20T22:09:43.898Z,1.83
2023-01-20T22:12:10.533Z,1.63
2023-01-20T22:14:37.669Z,1.80
2023-01-20T22:17:05.483Z,2.65
2023-01-20T22:19:32.067Z,1.83
2023-01-20T22:21:59.556Z,1.77
2023-01-20T22:24:26.111Z,2.53
2023-01-20T22:26:52.692Z,2.55
2023-01-20T22:29:19.293Z,1.98
2023-01-20T22:31:46.337Z,1.90
2023-01-20T22:34:13.220Z,1.10
2023-01-20T22:36:39.719Z,1.92
2023-01-20T22:39:06.796Z,1.98
2023-01-20T22:41:33.597Z,1.25
2023-01-20T22:44:00.092Z,1.67
2023-01-20T22:46:28.292Z,1.80
2023-01-20T22:48:58.394Z,3.22
2023-01-20T22:51:26.228Z,1.40
2023-01-20T22:53:56.323Z,1.83
2023-01-20T22:56:24.976Z,1.90
2023-01-20T22:58:51.431Z,2.03
2023-01-20T23:01:19.759Z,1.08
2023-01-20T23:03:46.557Z,1.92
2023-01-20T23:06:14.075Z,1.63
2023-01-20T23:08:41.186Z,1.77
2023-01-20T23:11:09.281Z,1.35
2023-01-20T23:13:35.971Z,1.52
2023-01-20T23:16:04.762Z,1.98
2023-01-20T23:18:31.781Z,1.90
2023-01-20T23:20:58.319Z,2.22
2023-01-20T23:23:25.572Z,1.60
2023-01-20T23:25:52.066Z,1.98
2023-01-20T23:28:18.580Z,1.38
2023-01-20T23:30:45.044Z,1.27
2023-01-20T23:33:11.532Z,2.33
2023-01-20T23:35:40.653Z,1.83
2023-01-20T23:38:07.202Z,1.85
2023-01-20T23:40:34.184Z,2.50
2023-01-20T23:43:00.711Z,1.30
2023-01-20T23:45:28.829Z,2.17
2023-01-20T23:47:55.607Z,1.92
2023-01-20T23:50:22.102Z,2.85
2023-01-20T23:52:48.577Z,1.70
2023-01-20T23:55:15.065Z,1.60
2023-01-20T23:57:41.553Z,1.92
